createdAt,value
2022-12-15T00:02:36.718Z,13.90
2022-12-15T00:05:23.064Z,14.43
2022-12-15T00:08:09.194Z,14.43
2022-12-15T00:10:55.062Z,15.63
2022-12-15T00:13:40.778Z,13.70
2022-12-15T00:16:26.826Z,14.37
2022-12-15T00:19:13.934Z,13.13
2022-12-15T00:21:59.939Z,13.93
2022-12-15T00:24:45.741Z,13.63
2022-12-15T00:27:35.792Z,13.77
2022-12-15T00:30:21.528Z,13.57
2022-12-15T00:33:07.532Z,13.33
2022-12-15T00:35:54.865Z,12.63
2022-12-15T00:38:41.507Z,12.83
2022-12-15T00:41:09.765Z,13.10
2022-12-15T00:43:38.454Z,12.40
2022-12-15T00:46:24.538Z,12.03
2022-12-15T00:48:52.856Z,12.87
2022-12-15T00:51:21.497Z,12.50
2022-12-15T00:54:08.991Z,12.00
2022-12-15T00:56:57.688Z,12.40
2022-12-15T00:59:43.623Z,11.00
2022-12-15T01:02:30.148Z,11.67
2022-12-15T01:05:15.918Z,11.60
2022-12-15T01:08:03.073Z,11.43
2022-12-15T01:10:48.757Z,10.73
2022-12-15T01:13:34.717Z,11.50
2022-12-15T01:16:20.920Z,9.33
2022-12-15T01:19:06.799Z,10.00
2022-12-15T01:21:35.046Z,10.00
2022-12-15T01:24:04.775Z,9.87
2022-12-15T01:26:33.030Z,9.33
2022-12-15T01:29:01.206Z,8.90
2022-12-15T01:31:29.484Z,9.03
2022-12-15T01:33:57.745Z,9.20
2022-12-15T01:36:26.011Z,8.50
2022-12-15T01:38:54.713Z,9.70
2022-12-15T01:41:23.475Z,9.20
2022-12-15T01:43:51.789Z,9.67
2022-12-15T01:46:21.265Z,9.47
2022-12-15T01:48:51.073Z,9.53
2022-12-15T01:51:26.812Z,9.37
2022-12-15T01:54:00.415Z,8.37
2022-12-15T01:56:35.487Z,8.87
2022-12-15T01:59:06.672Z,7.97
2022-12-15T02:01:35.070Z,7.60
2022-12-15T02:04:04.027Z,8.20
2022-12-15T02:06:32.361Z,8.47
2022-12-15T02:09:01.391Z,7.57
2022-12-15T02:11:45.151Z,8.20
2022-12-15T02:14:14.170Z,7.63
2022-12-15T02:16:48.828Z,7.53
2022-12-15T02:19:31.445Z,6.93
2022-12-15T02:22:06.662Z,7.40
2022-12-15T02:24:51.964Z,7.57
2022-12-15T02:27:30.896Z,7.37
2022-12-15T02:30:20.594Z,7.23
2022-12-15T02:32:51.909Z,7.20
2022-12-15T02:35:26.118Z,7.57
2022-12-15T02:37:54.428Z,7.07
2022-12-15T02:40:22.873Z,6.97
2022-12-15T02:42:52.934Z,7.03
2022-12-15T02:45:25.430Z,7.30
2022-12-15T02:47:58.570Z,6.80
2022-12-15T02:50:32.089Z,6.90
2022-12-15T02:53:04.878Z,7.20
2022-12-15T02:55:37.867Z,8.70
2022-12-15T02:58:08.837Z,7.97
2022-12-15T03:00:40.195Z,9.03
2022-12-15T03:03:08.812Z,9.23
2022-12-15T03:05:37.282Z,9.10
2022-12-15T03:08:05.662Z,9.80
2022-12-15T03:10:33.863Z,8.67
2022-12-15T03:13:02.122Z,9.27
2022-12-15T03:15:35.023Z,8.90
2022-12-15T03:18:05.392Z,9.70
2022-12-15T03:20:33.669Z,10.13
2022-12-15T03:23:02.405Z,10.17
2022-12-15T03:25:30.719Z,9.30
2022-12-15T03:27:59.055Z,9.37
2022-12-15T03:30:27.305Z,9.47
2022-12-15T03:32:55.483Z,8.87
2022-12-15T03:35:25.082Z,9.60
2022-12-15T03:37:53.258Z,10.00
2022-12-15T03:40:21.483Z,10.27
2022-12-15T03:42:49.816Z,8.87
2022-12-15T03:45:19.119Z,9.50
2022-12-15T03:47:47.767Z,9.13
2022-12-15T03:50:17.746Z,9.63
2022-12-15T03:52:47.506Z,9.37
2022-12-15T03:55:16.066Z,9.37
2022-12-15T03:57:44.255Z,9.70
2022-12-15T04:00:14.851Z,9.50
2022-12-15T04:02:43.320Z,9.47
2022-12-15T04:05:14.290Z,9.60
2022-12-15T04:07:42.576Z,8.80
2022-12-15T04:10:12.593Z,9.17
2022-12-15T04:12:40.869Z,9.70
2022-12-15T04:15:10.190Z,8.97
2022-12-15T04:17:38.453Z,10.03
2022-12-15T04:20:10.757Z,9.90
2022-12-15T04:22:39.275Z,9.43
2022-12-15T04:25:26.020Z,9.43
2022-12-15T04:28:13.662Z,9.97
2022-12-15T04:31:01.747Z,21.27
2022-12-15T04:33:47.767Z,23.93
2022-12-15T04:36:33.781Z,17.70
2022-12-15T04:39:19.747Z,16.03
2022-12-15T04:42:05.838Z,12.30
2022-12-15T04:44:53.183Z,16.30
2022-12-15T04:47:39.168Z,18.57
2022-12-15T04:50:25.228Z,13.10
2022-12-15T04:53:11.249Z,11.40
2022-12-15T04:55:57.305Z,10.50
2022-12-15T04:58:43.343Z,9.97
2022-12-15T05:01:30.783Z,9.90
2022-12-15T05:04:16.699Z,10.53
2022-12-15T05:07:02.542Z,11.13
2022-12-15T05:09:48.508Z,10.10
2022-12-15T05:12:34.554Z,10.20
2022-12-15T05:15:20.710Z,11.17
2022-12-15T05:18:07.871Z,11.07
2022-12-15T05:20:53.938Z,10.57
2022-12-15T05:23:40.099Z,9.97
2022-12-15T05:26:25.949Z,9.67
2022-12-15T05:29:12.100Z,10.17
2022-12-15T05:31:51.899Z,8.80
2022-12-15T05:34:23.038Z,10.90
2022-12-15T05:36:51.473Z,9.63
2022-12-15T05:39:19.726Z,11.30
2022-12-15T05:41:47.989Z,9.30
2022-12-15T05:44:17.331Z,9.43
2022-12-15T05:46:45.672Z,9.33
2022-12-15T05:49:14.894Z,9.33
2022-12-15T05:51:45.837Z,9.50
2022-12-15T05:54:16.417Z,9.93
2022-12-15T05:56:44.908Z,9.37
2022-12-15T05:59:13.655Z,11.40
2022-12-15T06:01:41.934Z,11.37
2022-12-15T06:04:11.551Z,9.77
2022-12-15T06:06:39.882Z,10.47
2022-12-15T06:09:09.561Z,15.03
2022-12-15T06:11:38.449Z,14.93
2022-12-15T06:14:06.725Z,12.20
2022-12-15T06:16:39.564Z,11.00
2022-12-15T06:19:11.088Z,9.87
2022-12-15T06:21:39.387Z,9.83
2022-12-15T06:24:09.710Z,9.60
2022-12-15T06:26:38.878Z,9.57
2022-12-15T06:29:08.457Z,8.63
2022-12-15T06:31:37.070Z,9.20
2022-12-15T06:34:05.903Z,8.73
2022-12-15T06:36:34.266Z,9.97
2022-12-15T06:39:03.315Z,8.93
2022-12-15T06:41:33.581Z,9.70
2022-12-15T06:44:02.426Z,9.50
2022-12-15T06:46:31.557Z,9.40
2022-12-15T06:49:00.257Z,10.63
2022-12-15T06:51:28.877Z,10.63
2022-12-15T06:53:57.106Z,9.80
2022-12-15T06:56:32.594Z,9.83
2022-12-15T06:59:03.550Z,10.00
2022-12-15T07:01:32.621Z,10.37
2022-12-15T07:04:02.752Z,10.33
2022-12-15T07:06:36.202Z,10.90
2022-12-15T07:09:04.724Z,10.70
2022-12-15T07:11:33.002Z,10.63
2022-12-15T07:14:03.062Z,11.17
2022-12-15T07:16:32.308Z,11.87
2022-12-15T07:19:00.583Z,10.93
2022-12-15T07:21:28.884Z,11.47
2022-12-15T07:23:58.587Z,11.50
2022-12-15T07:26:27.625Z,13.03
2022-12-15T07:28:56.540Z,13.23
2022-12-15T07:31:27.121Z,12.17
2022-12-15T07:33:55.496Z,12.70
2022-12-15T07:36:23.781Z,12.67
2022-12-15T07:38:52.308Z,12.80
2022-12-15T07:41:21.336Z,12.60
2022-12-15T07:43:49.691Z,13.00
2022-12-15T07:46:18.171Z,13.20
2022-12-15T07:48:50.697Z,13.37
2022-12-15T07:51:21.123Z,13.13
2022-12-15T07:53:50.563Z,13.97
2022-12-15T07:56:19.163Z,13.00
2022-12-15T07:58:47.425Z,14.00
2022-12-15T08:01:16.642Z,15.10
2022-12-15T08:03:45.803Z,14.63
2022-12-15T08:06:16.121Z,15.10
2022-12-15T08:08:50.380Z,14.27
2022-12-15T08:11:19.846Z,14.07
2022-12-15T08:14:05.672Z,13.77
2022-12-15T08:16:36.820Z,13.27
2022-12-15T08:19:06.319Z,13.93
2022-12-15T08:21:36.249Z,11.73
2022-12-15T08:24:04.685Z,13.47
2022-12-15T08:26:33.010Z,13.10
2022-12-15T08:29:40.519Z,14.00
2022-12-15T08:31:52.993Z,13.77
2022-12-15T08:34:21.351Z,13.07
2022-12-15T08:36:51.051Z,15.73
2022-12-15T08:39:20.622Z,14.97
2022-12-15T08:41:48.837Z,15.37
2022-12-15T08:44:17.345Z,13.27
2022-12-15T08:46:45.634Z,16.27
2022-12-15T08:49:19.558Z,16.50
2022-12-15T08:51:51.607Z,15.50
2022-12-15T08:54:20.631Z,15.27
2022-12-15T08:56:49.026Z,12.83
2022-12-15T08:59:17.282Z,12.80
2022-12-15T09:01:45.670Z,12.23
2022-12-15T09:04:14.082Z,12.03
2022-12-15T09:06:42.411Z,12.60
2022-12-15T09:09:13.351Z,13.53
2022-12-15T09:11:41.603Z,12.47
2022-12-15T09:14:09.881Z,13.63
2022-12-15T09:16:38.301Z,13.33
2022-12-15T09:19:07.215Z,14.30
2022-12-15T09:21:35.943Z,13.27
2022-12-15T09:24:04.774Z,13.57
2022-12-15T09:26:35.116Z,13.83
2022-12-15T09:29:03.397Z,13.13
2022-12-15T09:31:32.639Z,13.70
2022-12-15T09:34:01.675Z,13.80
2022-12-15T09:36:32.349Z,13.87
2022-12-15T09:39:01.829Z,12.13
2022-12-15T09:41:31.227Z,13.13
2022-12-15T09:44:02.035Z,13.40
2022-12-15T09:46:39.039Z,13.10
2022-12-15T09:49:12.548Z,13.37
2022-12-15T09:51:43.248Z,12.93
2022-12-15T09:54:12.226Z,12.03
2022-12-15T09:56:42.439Z,13.77
2022-12-15T09:59:17.007Z,13.73
2022-12-15T10:01:48.739Z,13.63
2022-12-15T10:04:22.747Z,13.47
2022-12-15T10:06:52.186Z,13.03
2022-12-15T10:09:21.980Z,14.37
2022-12-15T10:11:53.559Z,13.57
2022-12-15T10:14:26.313Z,13.90
2022-12-15T10:16:57.527Z,13.70
2022-12-15T10:19:28.467Z,14.30
2022-12-15T10:21:58.187Z,13.23
2022-12-15T10:25:07.484Z,13.33
2022-12-15T10:27:21.438Z,13.67
2022-12-15T10:29:55.286Z,14.07
2022-12-15T10:32:28.193Z,13.73
2022-12-15T10:34:56.483Z,13.73
2022-12-15T10:37:25.346Z,13.47
2022-12-15T10:39:53.570Z,13.43
2022-12-15T10:42:23.660Z,14.10
2022-12-15T10:44:54.105Z,13.70
2022-12-15T10:47:24.133Z,14.30
2022-12-15T10:49:52.335Z,13.60
2022-12-15T10:52:36.838Z,14.10
2022-12-15T10:55:29.592Z,13.50
2022-12-15T10:58:00.004Z,13.30
2022-12-15T11:00:31.004Z,13.90
2022-12-15T11:02:59.690Z,13.93
2022-12-15T11:05:28.459Z,13.17
2022-12-15T11:07:57.782Z,13.17
2022-12-15T11:10:27.262Z,13.67
2022-12-15T11:13:00.164Z,13.60
2022-12-15T11:15:38.734Z,13.50
2022-12-15T11:18:12.657Z,13.23
2022-12-15T11:20:43.561Z,13.77
2022-12-15T11:23:15.508Z,13.30
2022-12-15T11:25:45.441Z,13.20
2022-12-15T11:28:17.275Z,13.10
2022-12-15T11:30:49.031Z,12.73
2022-12-15T11:33:20.139Z,13.70
2022-12-15T11:35:56.932Z,13.53
2022-12-15T11:38:29.665Z,14.00
2022-12-15T11:41:00.246Z,15.40
2022-12-15T11:43:41.327Z,15.10
2022-12-15T11:46:17.261Z,14.87
2022-12-15T11:48:52.436Z,14.87
2022-12-15T11:51:25.962Z,15.03
2022-12-15T11:54:03.597Z,14.60
2022-12-15T11:56:34.025Z,13.97
2022-12-15T11:59:13.392Z,12.90
2022-12-15T12:01:58.883Z,12.93
2022-12-15T12:04:31.930Z,14.83
2022-12-15T12:07:05.705Z,12.90
2022-12-15T12:09:36.096Z,14.87
2022-12-15T12:12:13.329Z,14.43
2022-12-15T12:17:42.279Z,14.33
2022-12-15T12:20:15.244Z,15.10
2022-12-15T12:22:45.494Z,15.53
2022-12-15T12:25:16.594Z,15.43
2022-12-15T12:27:50.508Z,15.50
2022-12-15T12:30:20.086Z,15.27
2022-12-15T12:32:53.194Z,14.57
2022-12-15T12:35:31.138Z,13.63
2022-12-15T12:38:03.941Z,13.67
2022-12-15T12:40:34.572Z,14.33
2022-12-15T12:43:06.231Z,13.37
2022-12-15T12:45:50.133Z,13.50
2022-12-15T12:48:24.099Z,14.57
2022-12-15T12:50:52.410Z,14.80
2022-12-15T12:53:26.521Z,15.47
2022-12-15T12:55:55.143Z,15.67
2022-12-15T12:58:32.621Z,15.67
2022-12-15T13:01:16.846Z,14.23
2022-12-15T13:03:47.233Z,15.10
2022-12-15T13:06:32.177Z,15.57
2022-12-15T13:09:20.410Z,15.13
2022-12-15T13:12:27.547Z,14.67
2022-12-15T13:14:55.292Z,16.57
2022-12-15T13:17:29.750Z,16.07
2022-12-15T13:20:10.373Z,16.60
2022-12-15T13:22:40.436Z,16.20
2022-12-15T13:25:23.517Z,16.87
2022-12-15T13:27:53.431Z,16.30
2022-12-15T13:30:21.818Z,15.97
2022-12-15T13:32:53.591Z,16.13
2022-12-15T13:35:24.339Z,15.43
2022-12-15T13:37:55.771Z,16.50
2022-12-15T13:40:35.211Z,16.57
2022-12-15T13:43:11.375Z,16.47
2022-12-15T13:45:45.497Z,16.83
2022-12-15T13:48:34.807Z,17.03
2022-12-15T13:51:21.623Z,16.97
2022-12-15T13:53:56.146Z,18.00
2022-12-15T13:56:35.446Z,17.47
2022-12-15T13:59:06.859Z,18.83
2022-12-15T14:01:35.322Z,19.33
2022-12-15T14:04:07.904Z,19.17
2022-12-15T14:06:37.672Z,18.00
2022-12-15T14:09:08.292Z,17.53
2022-12-15T14:14:27.668Z,18.00
2022-12-15T14:17:01.212Z,17.73
2022-12-15T14:19:38.631Z,18.03
2022-12-15T14:22:26.740Z,18.03
2022-12-15T14:25:02.324Z,19.93
2022-12-15T14:27:31.840Z,18.40
2022-12-15T14:30:29.234Z,19.23
2022-12-15T14:33:00.199Z,19.07
2022-12-15T14:35:31.405Z,21.70
2022-12-15T14:38:01.709Z,26.93
2022-12-15T14:40:31.870Z,28.87
2022-12-15T14:43:00.307Z,21.70
2022-12-15T14:45:30.710Z,22.70
2022-12-15T14:48:30.943Z,21.53
2022-12-15T14:50:49.428Z,23.07
2022-12-15T14:53:20.129Z,22.70
2022-12-15T14:55:49.738Z,23.67
2022-12-15T14:58:29.379Z,22.60
2022-12-15T15:00:58.439Z,21.93
2022-12-15T15:03:07.047Z,14.00
2022-12-15T15:03:11.017Z,18.60
2022-12-15T15:03:36.327Z,21.93
2022-12-15T15:06:06.374Z,23.77
2022-12-15T15:08:36.866Z,19.90
2022-12-15T15:11:22.045Z,21.20
2022-12-15T15:13:56.163Z,21.73
2022-12-15T15:16:24.736Z,25.60
2022-12-15T15:18:54.306Z,27.83
2022-12-15T15:21:24.202Z,27.47
2022-12-15T15:24:02.392Z,24.23
2022-12-15T15:26:32.491Z,24.97
2022-12-15T15:29:02.834Z,26.33
2022-12-15T15:31:40.279Z,27.77
2022-12-15T15:34:09.497Z,27.83
2022-12-15T15:36:39.385Z,32.03
2022-12-15T15:39:13.909Z,30.33
2022-12-15T15:41:42.776Z,29.13
2022-12-15T15:44:14.522Z,25.67
2022-12-15T15:46:46.843Z,38.10
2022-12-15T15:49:17.277Z,31.03
2022-12-15T15:51:48.052Z,37.17
2022-12-15T15:54:17.784Z,42.53
2022-12-15T15:56:46.368Z,38.97
2022-12-15T15:59:17.460Z,30.87
2022-12-15T16:01:46.480Z,30.87
2022-12-15T16:04:14.834Z,27.07
2022-12-15T16:06:47.301Z,25.73
2022-12-15T16:09:16.905Z,27.60
2022-12-15T16:11:46.188Z,26.97
2022-12-15T16:14:16.592Z,26.83
2022-12-15T16:16:45.260Z,29.37
2022-12-15T16:19:13.894Z,26.73
2022-12-15T16:21:42.707Z,26.70
2022-12-15T16:24:12.927Z,26.57
2022-12-15T16:26:43.615Z,28.27
2022-12-15T16:29:16.768Z,29.57
2022-12-15T16:31:46.757Z,28.77
2022-12-15T16:34:16.427Z,26.43
2022-12-15T16:36:45.829Z,30.73
2022-12-15T16:39:24.855Z,29.40
2022-12-15T16:41:54.226Z,29.87
2022-12-15T16:44:23.206Z,28.37
2022-12-15T16:46:53.145Z,37.03
2022-12-15T16:49:21.687Z,42.47
2022-12-15T16:51:51.101Z,30.67
2022-12-15T16:54:21.196Z,29.60
2022-12-15T16:56:49.604Z,27.63
2022-12-15T16:59:34.867Z,32.13
2022-12-15T17:02:17.172Z,29.37
2022-12-15T17:04:47.552Z,27.87
2022-12-15T17:07:20.102Z,30.07
2022-12-15T17:09:49.493Z,33.97
2022-12-15T17:12:18.959Z,34.90
2022-12-15T17:14:47.516Z,32.77
2022-12-15T17:17:18.410Z,33.47
2022-12-15T17:20:19.950Z,35.30
2022-12-15T17:22:36.584Z,49.23
2022-12-15T17:25:05.140Z,47.17
2022-12-15T17:27:33.457Z,45.33
2022-12-15T17:30:02.528Z,38.67
2022-12-15T17:32:32.448Z,28.17
2022-12-15T17:35:00.883Z,31.57
2022-12-15T17:37:35.045Z,30.83
2022-12-15T17:40:04.142Z,28.00
2022-12-15T17:42:32.638Z,31.53
2022-12-15T17:45:01.179Z,31.57
2022-12-15T17:47:30.878Z,31.63
2022-12-15T17:50:00.716Z,30.83
2022-12-15T17:52:30.070Z,31.43
2022-12-15T17:54:58.777Z,36.53
2022-12-15T17:57:30.041Z,30.87
2022-12-15T17:59:58.973Z,31.53
2022-12-15T18:02:27.527Z,29.80
2022-12-15T18:04:55.888Z,27.97
2022-12-15T18:07:25.962Z,27.33
2022-12-15T18:09:55.057Z,25.37
2022-12-15T18:12:25.917Z,27.43
2022-12-15T18:14:55.330Z,27.50
2022-12-15T18:17:23.895Z,29.63
2022-12-15T18:19:52.310Z,33.80
2022-12-15T18:22:22.243Z,34.70
2022-12-15T18:24:53.843Z,34.67
2022-12-15T18:27:24.212Z,30.70
2022-12-15T18:29:52.626Z,28.97
2022-12-15T18:32:22.305Z,28.87
2022-12-15T18:34:50.630Z,27.83
2022-12-15T18:37:19.719Z,26.83
2022-12-15T18:39:48.369Z,29.27
2022-12-15T18:42:19.633Z,28.83
2022-12-15T18:44:49.224Z,28.87
2022-12-15T18:47:18.242Z,29.17
2022-12-15T18:49:47.085Z,29.37
2022-12-15T18:52:17.592Z,29.13
2022-12-15T18:54:46.159Z,28.37
2022-12-15T18:57:27.005Z,30.47
2022-12-15T18:59:55.495Z,31.10
2022-12-15T19:02:24.056Z,31.03
2022-12-15T19:04:52.520Z,28.17
2022-12-15T19:07:20.882Z,31.33
2022-12-15T19:09:51.390Z,28.07
2022-12-15T19:12:20.097Z,28.83
2022-12-15T19:14:51.349Z,27.97
2022-12-15T19:17:38.085Z,28.00
2022-12-15T19:20:25.589Z,27.77
2022-12-15T19:22:54.119Z,27.47
2022-12-15T19:25:26.218Z,27.03
2022-12-15T19:27:59.310Z,26.57
2022-12-15T19:30:30.054Z,26.73
2022-12-15T19:32:58.397Z,26.17
2022-12-15T19:35:27.966Z,25.50
2022-12-15T19:37:58.076Z,27.53
2022-12-15T19:40:27.613Z,26.07
2022-12-15T19:42:56.028Z,25.87
2022-12-15T19:45:26.123Z,26.03
2022-12-15T19:47:55.898Z,26.37
2022-12-15T19:50:25.103Z,27.13
2022-12-15T19:52:55.313Z,26.30
2022-12-15T19:55:25.818Z,28.13
2022-12-15T19:57:54.428Z,26.87
2022-12-15T20:00:24.780Z,28.57
2022-12-15T20:02:54.642Z,28.63
2022-12-15T20:05:25.389Z,29.40
2022-12-15T20:07:54.158Z,28.70
2022-12-15T20:10:27.870Z,29.70
2022-12-15T20:12:58.548Z,27.67
2022-12-15T20:15:27.450Z,29.17
2022-12-15T20:17:56.870Z,28.63
2022-12-15T20:20:28.399Z,32.03
2022-12-15T20:22:58.333Z,28.07
2022-12-15T20:25:27.784Z,29.10
2022-12-15T20:27:56.129Z,29.13
2022-12-15T20:30:25.162Z,29.07
2022-12-15T20:32:53.517Z,29.03
2022-12-15T20:35:23.048Z,30.23
2022-12-15T20:37:52.882Z,29.37
2022-12-15T20:40:22.267Z,31.10
2022-12-15T20:42:51.261Z,30.90
2022-12-15T20:45:20.470Z,30.20
2022-12-15T20:47:49.611Z,29.53
2022-12-15T20:50:25.569Z,30.20
2022-12-15T20:52:56.016Z,28.80
2022-12-15T20:55:24.472Z,27.53
2022-12-15T20:57:52.769Z,29.37
2022-12-15T21:00:21.836Z,28.20
2022-12-15T21:02:52.012Z,28.80
2022-12-15T21:05:24.283Z,30.23
2022-12-15T21:07:53.003Z,29.23
2022-12-15T21:10:22.871Z,31.03
2022-12-15T21:12:51.893Z,30.90
2022-12-15T21:15:21.628Z,30.33
2022-12-15T21:18:11.080Z,31.13
2022-12-15T21:20:39.647Z,29.97
2022-12-15T21:23:08.355Z,29.67
2022-12-15T21:25:37.964Z,30.60
2022-12-15T21:28:11.383Z,30.40
2022-12-15T21:30:40.046Z,29.50
2022-12-15T21:33:08.331Z,30.37
2022-12-15T21:35:37.470Z,29.67
2022-12-15T21:38:06.400Z,29.50
2022-12-15T21:40:34.690Z,28.20
2022-12-15T21:43:06.510Z,27.73
2022-12-15T21:45:34.807Z,28.57
2022-12-15T21:48:20.710Z,28.97
2022-12-15T21:50:49.523Z,27.83
2022-12-15T21:53:19.815Z,25.57
2022-12-15T21:55:48.354Z,27.63
2022-12-15T21:58:22.015Z,28.20
2022-12-15T22:00:50.223Z,27.27
2022-12-15T22:03:18.637Z,26.73
2022-12-15T22:05:46.916Z,27.60
2022-12-15T22:08:16.582Z,31.10
2022-12-15T22:10:45.748Z,35.40
2022-12-15T22:13:16.591Z,28.87
2022-12-15T22:15:46.337Z,30.93
2022-12-15T22:18:19.469Z,35.60
2022-12-15T22:20:49.833Z,30.17
2022-12-15T22:23:19.016Z,30.67
2022-12-15T22:25:47.277Z,29.60
2022-12-15T22:28:19.706Z,29.40
2022-12-15T22:30:49.585Z,28.63
2022-12-15T22:33:23.708Z,28.17
2022-12-15T22:35:52.518Z,30.17
2022-12-15T22:38:24.053Z,29.27
2022-12-15T22:40:53.510Z,28.20
2022-12-15T22:43:25.392Z,28.53
2022-12-15T22:45:56.309Z,27.37
2022-12-15T22:48:25.901Z,27.63
2022-12-15T22:50:54.156Z,29.37
2022-12-15T22:53:23.953Z,28.90
2022-12-15T22:55:52.180Z,29.03
2022-12-15T22:58:26.681Z,30.50
2022-12-15T23:00:57.086Z,28.30
2022-12-15T23:03:25.363Z,29.40
2022-12-15T23:05:53.581Z,30.17
2022-12-15T23:08:21.842Z,28.93
2022-12-15T23:11:08.092Z,31.03
2022-12-15T23:13:36.259Z,30.20
2022-12-15T23:16:21.547Z,29.83
2022-12-15T23:18:50.598Z,27.83
2022-12-15T23:21:19.983Z,29.13
2022-12-15T23:23:48.318Z,29.33
2022-12-15T23:26:19.752Z,27.53
2022-12-15T23:28:48.410Z,28.33
2022-12-15T23:31:18.169Z,30.50
2022-12-15T23:33:46.607Z,28.73
2022-12-15T23:36:15.103Z,29.13
2022-12-15T23:38:43.309Z,29.57
2022-12-15T23:41:16.642Z,29.53
2022-12-15T23:43:44.972Z,28.17
2022-12-15T23:46:13.254Z,28.20
2022-12-15T23:48:43.594Z,25.30
2022-12-15T23:51:13.579Z,23.90
2022-12-15T23:53:42.507Z,24.93
2022-12-15T23:56:11.839Z,24.23
2022-12-15T23:58:40.369Z,24.37
